createdAt,value
2018-09-09T00:01:53.276Z,4.17
2018-09-09T00:04:21.729Z,3.90
2018-09-09T00:06:50.246Z,4.80
2018-09-09T00:09:24.040Z,5.90
2018-09-09T00:11:52.545Z,5.27
2018-09-09T00:14:21.250Z,4.67
2018-09-09T00:16:49.929Z,3.87
2018-09-09T00:19:18.408Z,5.37
2018-09-09T00:21:46.879Z,4.63
2018-09-09T00:24:15.504Z,4.10
2018-09-09T00:26:44.036Z,6.50
2018-09-09T00:29:12.747Z,5.13
2018-09-09T00:31:41.489Z,5.63
2018-09-09T00:34:10.190Z,5.67
2018-09-09T00:36:38.683Z,5.57
2018-09-09T00:39:08.193Z,5.23
2018-09-09T00:41:36.697Z,4.27
2018-09-09T00:44:05.267Z,3.73
2018-09-09T00:46:34.150Z,5.60
2018-09-09T00:49:08.329Z,6.90
2018-09-09T00:51:42.331Z,4.90
2018-09-09T00:54:10.851Z,4.13
2018-09-09T00:56:39.441Z,4.70
2018-09-09T00:59:08.138Z,5.13
2018-09-09T01:01:37.104Z,4.73
2018-09-09T01:04:05.765Z,6.33
2018-09-09T01:06:34.252Z,4.80
2018-09-09T01:09:02.845Z,3.63
2018-09-09T01:11:31.343Z,5.30
2018-09-09T01:13:59.825Z,6.80
2018-09-09T01:16:28.511Z,6.47
2018-09-09T01:18:57.956Z,5.43
2018-09-09T01:21:26.551Z,5.27
2018-09-09T01:23:55.082Z,5.60
2018-09-09T01:26:24.254Z,5.13
2018-09-09T01:28:52.752Z,6.63
2018-09-09T01:31:21.420Z,5.07
2018-09-09T01:33:50.105Z,6.53
2018-09-09T01:36:18.834Z,7.27
2018-09-09T01:38:47.286Z,6.20
2018-09-09T01:41:15.780Z,7.77
2018-09-09T01:43:45.130Z,7.23
2018-09-09T01:46:13.904Z,6.10
2018-09-09T01:48:42.407Z,6.50
2018-09-09T01:51:11.164Z,5.57
2018-09-09T01:53:39.642Z,5.40
2018-09-09T01:56:08.185Z,6.27
2018-09-09T01:58:36.910Z,4.63
2018-09-09T02:01:05.474Z,5.87
2018-09-09T02:03:34.006Z,5.60
2018-09-09T02:06:02.709Z,4.20
2018-09-09T02:08:31.191Z,4.10
2018-09-09T02:11:00.993Z,5.43
2018-09-09T02:13:31.201Z,5.40
2018-09-09T02:16:00.007Z,6.33
2018-09-09T02:18:28.559Z,8.83
2018-09-09T02:20:57.017Z,6.97
2018-09-09T02:23:25.981Z,4.93
2018-09-09T02:25:54.611Z,4.93
2018-09-09T02:28:23.081Z,5.43
2018-09-09T02:30:51.612Z,5.00
2018-09-09T02:33:20.198Z,6.00
2018-09-09T02:35:48.744Z,4.70
2018-09-09T02:38:17.271Z,5.00
2018-09-09T02:40:45.724Z,4.60
2018-09-09T02:43:14.183Z,5.70
2018-09-09T02:45:42.701Z,6.13
2018-09-09T02:48:11.381Z,5.27
2018-09-09T02:50:39.922Z,6.00
2018-09-09T02:53:08.418Z,5.37
2018-09-09T02:55:46.261Z,4.70
2018-09-09T02:58:16.321Z,6.33
2018-09-09T03:00:45.132Z,6.07
2018-09-09T03:03:13.601Z,5.80
2018-09-09T03:05:42.491Z,6.23
2018-09-09T03:08:10.998Z,5.03
2018-09-09T03:10:40.131Z,8.33
2018-09-09T03:13:08.640Z,7.33
2018-09-09T03:15:37.138Z,6.13
2018-09-09T03:18:05.666Z,6.43
2018-09-09T03:20:34.168Z,7.03
2018-09-09T03:23:02.672Z,4.87
2018-09-09T03:25:31.192Z,6.10
2018-09-09T03:27:59.739Z,5.90
2018-09-09T03:30:28.378Z,6.27
2018-09-09T03:32:56.908Z,6.43
2018-09-09T03:35:25.351Z,5.97
2018-09-09T03:37:53.835Z,9.03
2018-09-09T03:40:22.388Z,7.57
2018-09-09T03:42:50.874Z,6.67
2018-09-09T03:45:19.382Z,8.67
2018-09-09T03:47:47.864Z,7.07
2018-09-09T03:50:16.396Z,8.23
2018-09-09T03:52:45.087Z,8.13
2018-09-09T03:55:13.567Z,8.93
2018-09-09T03:57:42.391Z,7.20
2018-09-09T04:00:10.868Z,7.67
2018-09-09T04:02:39.354Z,9.67
2018-09-09T04:05:07.902Z,8.33
2018-09-09T04:07:36.724Z,7.90
2018-09-09T04:10:05.553Z,7.33
2018-09-09T04:12:34.253Z,8.43
2018-09-09T04:15:03.120Z,6.50
2018-09-09T04:17:31.658Z,7.10
2018-09-09T04:20:00.134Z,7.93
2018-09-09T04:22:29.083Z,6.47
2018-09-09T04:24:57.608Z,7.03
2018-09-09T04:27:26.307Z,6.53
2018-09-09T04:29:55.238Z,6.80
2018-09-09T04:32:23.949Z,9.63
2018-09-09T04:34:52.659Z,7.30
2018-09-09T04:37:21.480Z,7.17
2018-09-09T04:39:49.982Z,7.93
2018-09-09T04:42:18.436Z,7.53
2018-09-09T04:44:47.045Z,7.87
2018-09-09T04:47:15.636Z,6.43
2018-09-09T04:49:44.118Z,7.47
2018-09-09T04:52:12.815Z,10.23
2018-09-09T04:54:41.496Z,7.60
2018-09-09T04:57:09.956Z,8.23
2018-09-09T04:59:38.576Z,7.97
2018-09-09T05:02:07.275Z,7.00
2018-09-09T05:04:35.806Z,9.47
2018-09-09T05:07:04.603Z,7.10
2018-09-09T05:09:33.106Z,7.33
2018-09-09T05:12:01.797Z,7.30
2018-09-09T05:14:30.353Z,6.20
2018-09-09T05:16:58.935Z,7.40
2018-09-09T05:19:27.601Z,8.07
2018-09-09T05:21:56.197Z,7.03
2018-09-09T05:24:24.710Z,6.07
2018-09-09T05:26:53.563Z,5.20
2018-09-09T05:29:22.142Z,5.93
2018-09-09T05:31:50.779Z,8.53
2018-09-09T05:34:19.539Z,6.77
2018-09-09T05:36:48.409Z,7.17
2018-09-09T05:39:17.072Z,6.13
2018-09-09T05:41:45.662Z,6.27
2018-09-09T05:44:14.307Z,6.30
2018-09-09T05:46:42.845Z,6.77
2018-09-09T05:49:11.402Z,8.37
2018-09-09T05:51:40.008Z,7.03
2018-09-09T05:54:08.541Z,10.13
2018-09-09T05:56:37.886Z,9.17
2018-09-09T05:59:06.423Z,8.67
2018-09-09T06:01:34.955Z,7.53
2018-09-09T06:04:04.129Z,7.80
2018-09-09T06:06:32.760Z,7.87
2018-09-09T06:09:01.906Z,7.70
2018-09-09T06:11:30.400Z,8.40
2018-09-09T06:13:58.906Z,10.17
2018-09-09T06:16:27.388Z,7.30
2018-09-09T06:18:55.887Z,8.93
2018-09-09T06:21:24.417Z,7.20
2018-09-09T06:23:52.975Z,6.77
2018-09-09T06:26:21.494Z,6.37
2018-09-09T06:28:50.001Z,8.10
2018-09-09T06:31:18.538Z,8.03
2018-09-09T06:33:47.170Z,7.13
2018-09-09T06:36:15.632Z,7.40
2018-09-09T06:38:44.105Z,8.30
2018-09-09T06:41:12.610Z,8.33
2018-09-09T06:43:41.170Z,9.57
2018-09-09T06:46:09.657Z,9.17
2018-09-09T06:48:38.280Z,9.23
2018-09-09T06:51:06.965Z,8.07
2018-09-09T06:53:35.882Z,7.10
2018-09-09T06:56:04.472Z,9.20
2018-09-09T06:58:33.139Z,7.40
2018-09-09T07:01:01.594Z,9.93
2018-09-09T07:03:30.634Z,8.30
2018-09-09T07:05:59.330Z,8.77
2018-09-09T07:08:28.053Z,7.63
2018-09-09T07:10:57.452Z,8.80
2018-09-09T07:13:25.938Z,8.67
2018-09-09T07:15:54.672Z,8.97
2018-09-09T07:18:23.477Z,8.73
2018-09-09T07:20:51.992Z,7.13
2018-09-09T07:23:20.513Z,6.93
2018-09-09T07:25:49.014Z,8.10
2018-09-09T07:28:17.575Z,7.50
2018-09-09T07:30:46.036Z,6.80
2018-09-09T07:33:14.845Z,10.07
2018-09-09T07:35:43.389Z,7.70
2018-09-09T07:38:11.959Z,7.37
2018-09-09T07:40:40.575Z,10.40
2018-09-09T07:43:09.093Z,7.03
2018-09-09T07:45:37.564Z,9.40
2018-09-09T07:48:06.343Z,7.00
2018-09-09T07:50:34.955Z,6.80
2018-09-09T07:53:03.468Z,6.50
2018-09-09T07:55:32.469Z,9.70
2018-09-09T07:58:00.964Z,6.83
2018-09-09T08:00:29.812Z,6.40
2018-09-09T08:02:58.870Z,6.87
2018-09-09T08:05:27.976Z,5.83
2018-09-09T08:07:56.460Z,5.90
2018-09-09T08:10:26.531Z,6.07
2018-09-09T08:12:55.603Z,5.30
2018-09-09T08:15:24.072Z,7.13
2018-09-09T08:17:52.658Z,7.37
2018-09-09T08:20:21.321Z,6.47
2018-09-09T08:22:50.283Z,5.60
2018-09-09T08:25:19.188Z,6.07
2018-09-09T08:27:47.694Z,6.67
2018-09-09T08:30:16.508Z,4.97
2018-09-09T08:32:45.320Z,5.43
2018-09-09T08:35:13.868Z,6.17
2018-09-09T08:37:42.596Z,5.17
2018-09-09T08:40:11.138Z,4.90
2018-09-09T08:42:39.643Z,5.70
2018-09-09T08:45:08.156Z,6.77
2018-09-09T08:47:36.867Z,5.97
2018-09-09T08:50:05.431Z,4.67
2018-09-09T08:52:33.940Z,6.47
2018-09-09T08:55:02.462Z,5.47
2018-09-09T08:57:31.083Z,4.40
2018-09-09T08:59:59.726Z,4.83
2018-09-09T09:02:28.262Z,8.10
2018-09-09T09:04:57.037Z,4.67
2018-09-09T09:07:25.644Z,4.53
2018-09-09T09:09:54.098Z,4.13
2018-09-09T09:12:22.632Z,5.33
2018-09-09T09:14:51.210Z,5.93
2018-09-09T09:17:19.707Z,5.00
2018-09-09T09:19:48.284Z,5.30
2018-09-09T09:22:16.915Z,5.93
2018-09-09T09:24:45.458Z,5.27
2018-09-09T09:27:14.002Z,5.77
2018-09-09T09:29:47.636Z,5.93
2018-09-09T09:32:20.273Z,6.67
2018-09-09T09:34:48.823Z,6.87
2018-09-09T09:37:17.622Z,6.67
2018-09-09T09:39:46.146Z,6.53
2018-09-09T09:42:14.626Z,5.80
2018-09-09T09:44:44.468Z,7.77
2018-09-09T09:47:13.380Z,6.30
2018-09-09T09:49:41.915Z,4.97
2018-09-09T09:52:10.875Z,4.90
2018-09-09T09:54:40.166Z,5.27
2018-09-09T09:57:09.186Z,5.20
2018-09-09T09:59:37.692Z,6.33
2018-09-09T10:02:06.577Z,5.90
2018-09-09T10:04:36.239Z,6.60
2018-09-09T10:07:04.830Z,7.40
2018-09-09T10:09:33.807Z,6.67
2018-09-09T10:12:02.313Z,5.60
2018-09-09T10:14:30.837Z,6.60
2018-09-09T10:16:59.652Z,5.90
2018-09-09T10:19:28.177Z,6.50
2018-09-09T10:21:57.132Z,5.57
2018-09-09T10:24:25.881Z,5.13
2018-09-09T10:26:56.395Z,6.30
2018-09-09T10:29:25.035Z,6.00
2018-09-09T10:31:53.659Z,6.73
2018-09-09T10:34:22.178Z,4.90
2018-09-09T10:36:50.656Z,7.37
2018-09-09T10:39:19.259Z,5.70
2018-09-09T10:41:47.770Z,5.23
2018-09-09T10:44:16.429Z,7.37
2018-09-09T10:46:45.002Z,7.40
2018-09-09T10:49:13.886Z,4.93
2018-09-09T10:51:42.381Z,4.40
2018-09-09T10:54:10.915Z,6.60
2018-09-09T10:56:39.409Z,5.00
2018-09-09T10:59:07.877Z,6.67
2018-09-09T11:01:37.020Z,5.47
2018-09-09T11:04:06.079Z,5.27
2018-09-09T11:06:34.670Z,4.67
2018-09-09T11:09:04.076Z,5.70
2018-09-09T11:11:33.266Z,4.73
2018-09-09T11:14:01.777Z,5.63
2018-09-09T11:16:30.309Z,5.80
2018-09-09T11:18:59.439Z,5.30
2018-09-09T11:21:31.036Z,5.40
2018-09-09T11:24:00.388Z,4.73
2018-09-09T11:26:29.095Z,5.67
2018-09-09T11:28:57.908Z,4.40
2018-09-09T11:31:27.136Z,4.83
2018-09-09T11:33:55.636Z,5.73
2018-09-09T11:36:24.156Z,5.33
2018-09-09T11:38:52.874Z,5.67
2018-09-09T11:41:21.420Z,5.10
2018-09-09T11:43:49.937Z,4.37
2018-09-09T11:46:19.852Z,6.17
2018-09-09T11:48:48.384Z,4.83
2018-09-09T11:51:17.354Z,5.50
2018-09-09T11:53:47.752Z,3.63
2018-09-09T11:56:16.788Z,4.57
2018-09-09T11:58:47.738Z,6.53
2018-09-09T12:01:17.635Z,4.13
2018-09-09T12:03:46.242Z,6.83
2018-09-09T12:06:15.430Z,5.70
2018-09-09T12:08:43.951Z,3.57
2018-09-09T12:11:13.412Z,4.03
2018-09-09T12:13:41.944Z,5.67
2018-09-09T12:16:10.511Z,6.73
2018-09-09T12:18:38.996Z,3.77
2018-09-09T12:21:07.477Z,4.30
2018-09-09T12:23:37.896Z,6.67
2018-09-09T12:26:08.383Z,4.50
2018-09-09T12:28:37.390Z,3.80
2018-09-09T12:31:07.544Z,5.13
2018-09-09T12:33:37.359Z,3.90
2018-09-09T12:36:06.839Z,4.70
2018-09-09T12:38:35.328Z,3.67
2018-09-09T12:41:04.433Z,4.83
2018-09-09T12:43:39.347Z,4.93
2018-09-09T12:59:06.837Z,6.03
2018-09-09T13:01:35.312Z,3.47
2018-09-09T13:04:03.961Z,4.53
2018-09-09T13:06:32.481Z,3.70
2018-09-09T13:09:00.957Z,3.33
2018-09-09T13:11:29.524Z,4.07
2018-09-09T13:13:57.994Z,3.27
2018-09-09T13:16:26.617Z,2.10
2018-09-09T13:18:55.572Z,3.00
2018-09-09T13:21:24.284Z,3.07
2018-09-09T13:23:52.856Z,2.70
2018-09-09T13:26:21.307Z,3.67
2018-09-09T13:28:49.914Z,3.47
2018-09-09T13:31:18.377Z,4.03
2018-09-09T13:33:46.880Z,1.90
2018-09-09T13:36:16.703Z,1.77
2018-09-09T13:38:45.384Z,2.50
2018-09-09T13:41:14.034Z,1.73
2018-09-09T13:43:42.654Z,2.70
2018-09-09T13:46:11.180Z,2.67
2018-09-09T13:48:39.767Z,2.33
2018-09-09T13:51:08.357Z,3.03
2018-09-09T13:53:37.152Z,2.43
2018-09-09T13:56:05.618Z,3.13
2018-09-09T13:58:34.988Z,3.57
2018-09-09T14:01:03.472Z,1.63
2018-09-09T14:03:32.195Z,2.80
2018-09-09T14:06:00.938Z,2.30
2018-09-09T14:08:29.510Z,2.40
2018-09-09T14:10:57.978Z,2.80
2018-09-09T14:13:26.699Z,2.67
2018-09-09T14:15:55.176Z,3.40
2018-09-09T14:18:23.769Z,2.40
2018-09-09T14:20:52.295Z,1.70
2018-09-09T14:23:20.888Z,1.87
2018-09-09T14:25:49.414Z,2.77
2018-09-09T14:28:19.035Z,4.80
2018-09-09T14:30:47.613Z,2.93
2018-09-09T14:33:16.083Z,3.23
2018-09-09T14:35:44.917Z,1.50
2018-09-09T14:38:13.601Z,2.90
2018-09-09T14:40:42.073Z,2.10
2018-09-09T14:43:10.559Z,2.90
2018-09-09T14:45:39.032Z,3.67
2018-09-09T14:48:07.575Z,2.53
2018-09-09T14:50:36.121Z,2.80
2018-09-09T14:53:04.646Z,2.00
2018-09-09T14:55:33.093Z,2.93
2018-09-09T14:58:01.579Z,2.97
2018-09-09T15:00:30.091Z,2.17
2018-09-09T15:02:58.919Z,2.00
2018-09-09T15:05:27.462Z,2.13
2018-09-09T15:07:55.953Z,2.43
2018-09-09T15:10:24.936Z,4.37
2018-09-09T15:12:53.860Z,4.40
2018-09-09T15:15:22.363Z,3.37
2018-09-09T15:17:51.040Z,1.63
2018-09-09T15:20:19.697Z,2.07
2018-09-09T15:22:48.225Z,2.47
2018-09-09T15:25:16.793Z,4.27
2018-09-09T15:27:45.288Z,2.37
2018-09-09T15:30:14.161Z,1.87
2018-09-09T15:32:42.890Z,3.37
2018-09-09T15:35:11.807Z,2.53
2018-09-09T15:37:40.461Z,3.30
2018-09-09T15:40:09.232Z,3.00
2018-09-09T15:42:38.862Z,3.03
2018-09-09T15:45:08.040Z,3.83
2018-09-09T15:47:38.329Z,2.20
2018-09-09T15:50:06.842Z,2.90
2018-09-09T15:52:35.393Z,3.77
2018-09-09T15:55:04.040Z,3.80
2018-09-09T15:57:32.536Z,3.47
2018-09-09T16:00:01.066Z,2.30
2018-09-09T16:02:32.353Z,2.53
2018-09-09T16:05:03.158Z,3.93
2018-09-09T16:07:31.628Z,3.93
2018-09-09T16:10:01.229Z,3.83
2018-09-09T16:12:29.822Z,2.57
2018-09-09T16:14:59.052Z,5.13
2018-09-09T16:17:28.052Z,3.07
2018-09-09T16:19:56.563Z,3.07
2018-09-09T16:22:25.105Z,2.97
2018-09-09T16:24:54.013Z,3.13
2018-09-09T16:27:22.546Z,4.23
2018-09-09T16:29:51.176Z,4.53
2018-09-09T16:32:19.719Z,4.90
2018-09-09T16:34:48.342Z,3.87
2018-09-09T16:37:16.967Z,3.80
2018-09-09T16:39:45.762Z,3.00
2018-09-09T16:42:14.189Z,4.13
2018-09-09T16:44:42.696Z,3.77
2018-09-09T16:47:11.445Z,2.40
2018-09-09T16:49:39.951Z,4.13
2018-09-09T16:52:08.489Z,4.33
2018-09-09T16:54:37.189Z,3.30
2018-09-09T16:57:07.614Z,4.00
2018-09-09T16:59:36.891Z,2.90
2018-09-09T17:02:05.448Z,3.50
2018-09-09T17:04:33.944Z,3.17
2018-09-09T17:07:02.570Z,4.10
2018-09-09T17:09:31.239Z,5.10
2018-09-09T17:12:00.411Z,3.60
2018-09-09T17:14:28.874Z,5.23
2018-09-09T17:16:57.395Z,5.67
2018-09-09T17:19:26.763Z,5.30
2018-09-09T17:21:55.280Z,6.43
2018-09-09T17:24:23.949Z,4.67
2018-09-09T17:26:52.690Z,4.63
2018-09-09T17:29:21.607Z,5.50
2018-09-09T17:31:50.879Z,3.93
2018-09-09T17:34:19.579Z,4.70
2018-09-09T17:36:48.308Z,4.47
2018-09-09T17:39:16.778Z,5.97
2018-09-09T17:41:45.280Z,5.50
2018-09-09T17:44:13.768Z,6.33
2018-09-09T17:46:42.418Z,7.10
2018-09-09T17:49:11.278Z,6.80
2018-09-09T17:51:39.832Z,7.10
2018-09-09T17:54:08.433Z,6.23
2018-09-09T17:56:37.490Z,10.57
2018-09-09T17:59:05.995Z,11.57
2018-09-09T18:01:34.604Z,9.20
2018-09-09T18:04:06.171Z,9.87
2018-09-09T18:06:35.375Z,7.07
2018-09-09T18:09:07.051Z,7.13
2018-09-09T18:11:36.762Z,12.20
2018-09-09T18:14:07.680Z,8.97
2018-09-09T18:16:36.370Z,7.43
2018-09-09T18:19:07.648Z,8.43
2018-09-09T18:21:36.268Z,7.40
2018-09-09T18:24:06.008Z,8.13
2018-09-09T18:26:34.627Z,5.57
2018-09-09T18:29:03.149Z,9.30
2018-09-09T18:31:31.705Z,7.47
2018-09-09T18:34:00.242Z,7.87
2018-09-09T18:36:28.957Z,5.17
2018-09-09T18:38:57.553Z,4.73
2018-09-09T18:41:26.148Z,5.43
2018-09-09T18:43:54.915Z,6.80
2018-09-09T18:46:23.498Z,5.80
2018-09-09T18:48:52.430Z,7.63
2018-09-09T18:51:21.275Z,6.70
2018-09-09T18:53:50.208Z,7.47
2018-09-09T18:56:18.817Z,6.90
2018-09-09T18:58:47.295Z,7.87
2018-09-09T19:01:15.934Z,7.93
2018-09-09T19:03:44.447Z,9.00
2018-09-09T19:06:13.034Z,7.47
2018-09-09T19:08:41.454Z,11.13
2018-09-09T19:11:10.019Z,7.73
2018-09-09T19:13:38.831Z,10.10
2018-09-09T19:16:07.354Z,8.73
2018-09-09T19:18:36.260Z,9.30
2018-09-09T19:21:04.871Z,9.70
2018-09-09T19:23:33.341Z,9.43
2018-09-09T19:26:02.075Z,6.10
2018-09-09T19:28:30.782Z,6.23
2018-09-09T19:30:59.268Z,5.27
2018-09-09T19:33:27.808Z,6.87
2018-09-09T19:35:56.816Z,6.47
2018-09-09T19:38:25.295Z,3.77
2018-09-09T19:40:53.844Z,5.77
2018-09-09T19:43:22.321Z,4.73
2018-09-09T19:45:50.863Z,4.90
2018-09-09T19:48:19.528Z,4.57
2018-09-09T19:50:48.142Z,4.60
2018-09-09T19:53:16.884Z,5.93
2018-09-09T19:55:45.382Z,3.77
2018-09-09T19:58:14.362Z,4.17
2018-09-09T20:00:43.029Z,6.37
2018-09-09T20:03:11.727Z,5.60
2018-09-09T20:05:40.240Z,3.80
2018-09-09T20:08:08.820Z,3.40
2018-09-09T20:10:37.453Z,3.13
2018-09-09T20:13:05.949Z,3.27
2018-09-09T20:15:34.704Z,3.47
2018-09-09T20:18:03.228Z,4.73
2018-09-09T20:20:31.716Z,3.27
2018-09-09T20:23:00.914Z,5.30
2018-09-09T20:25:29.446Z,4.47
2018-09-09T20:27:58.050Z,2.80
2018-09-09T20:30:27.642Z,4.53
2018-09-09T20:32:56.167Z,3.63
2018-09-09T20:35:24.969Z,4.83
2018-09-09T20:37:53.673Z,3.87
2018-09-09T20:40:22.533Z,4.43
2018-09-09T20:42:51.048Z,3.67
2018-09-09T20:45:19.656Z,3.77
2018-09-09T20:47:48.370Z,8.10
2018-09-09T20:50:16.886Z,3.50
2018-09-09T20:52:45.439Z,4.50
2018-09-09T20:55:13.971Z,5.77
2018-09-09T20:57:42.518Z,3.97
2018-09-09T21:00:11.235Z,4.27
2018-09-09T21:02:39.881Z,5.77
2018-09-09T21:05:09.430Z,4.87
2018-09-09T21:07:38.153Z,4.53
2018-09-09T21:10:07.548Z,3.37
2018-09-09T21:12:36.064Z,4.33
2018-09-09T21:15:06.252Z,4.07
2018-09-09T21:17:35.660Z,4.33
2018-09-09T21:20:04.888Z,5.07
2018-09-09T21:22:33.670Z,4.03
2018-09-09T21:25:09.800Z,5.27
2018-09-09T21:27:38.785Z,4.23
2018-09-09T21:30:07.311Z,4.67
2018-09-09T21:32:35.972Z,3.77
2018-09-09T21:35:04.522Z,4.80
2018-09-09T21:37:33.092Z,6.03
2018-09-09T21:40:01.815Z,4.43
2018-09-09T21:42:30.798Z,6.07
2018-09-09T21:44:59.480Z,5.97
2018-09-09T21:47:28.172Z,6.97
2018-09-09T21:49:56.917Z,4.57
2018-09-09T21:52:25.452Z,5.10
2018-09-09T21:54:54.193Z,5.67
2018-09-09T21:57:22.730Z,4.63
2018-09-09T21:59:51.260Z,6.07
2018-09-09T22:02:19.973Z,5.10
2018-09-09T22:04:48.648Z,6.37
2018-09-09T22:07:17.351Z,6.70
2018-09-09T22:09:46.094Z,5.43
2018-09-09T22:12:14.559Z,3.83
2018-09-09T22:14:43.252Z,4.20
2018-09-09T22:17:12.077Z,7.03
2018-09-09T22:19:40.789Z,5.53
2018-09-09T22:22:09.255Z,5.30
2018-09-09T22:24:37.807Z,6.07
2018-09-09T22:27:06.295Z,7.93
2018-09-09T22:29:34.843Z,5.23
2018-09-09T22:32:03.298Z,7.80
2018-09-09T22:34:31.762Z,7.27
2018-09-09T22:37:00.227Z,7.00
2018-09-09T22:39:28.685Z,7.30
2018-09-09T22:41:57.288Z,8.30
2018-09-09T22:44:25.894Z,7.67
2018-09-09T22:46:54.436Z,9.20
2018-09-09T22:49:22.963Z,7.63
2018-09-09T22:51:52.092Z,8.10
2018-09-09T22:54:20.608Z,9.50
2018-09-09T22:56:49.152Z,8.53
2018-09-09T22:59:17.908Z,7.70
2018-09-09T23:01:46.453Z,8.87
2018-09-09T23:04:14.973Z,8.53
2018-09-09T23:06:43.607Z,7.93
2018-09-09T23:09:13.226Z,8.80
2018-09-09T23:11:41.792Z,9.90
2018-09-09T23:14:10.331Z,7.53
2018-09-09T23:16:38.946Z,8.40
2018-09-09T23:19:07.410Z,13.60
2018-09-09T23:21:35.940Z,10.87
2018-09-09T23:24:04.708Z,7.83
2018-09-09T23:26:33.186Z,10.20
2018-09-09T23:29:01.704Z,9.90
2018-09-09T23:31:30.419Z,12.83
2018-09-09T23:33:58.886Z,16.33
2018-09-09T23:36:27.520Z,12.60
2018-09-09T23:38:55.979Z,11.43
2018-09-09T23:41:24.616Z,12.47
2018-09-09T23:43:53.069Z,10.23
2018-09-09T23:46:21.557Z,10.57
2018-09-09T23:48:50.061Z,11.93
2018-09-09T23:51:18.564Z,15.37
2018-09-09T23:53:47.072Z,15.60
2018-09-09T23:56:15.711Z,11.87
2018-09-09T23:58:44.209Z,9.60
